Missao Velha, Brazil
Current Conditions -  °F | °C
As of 4:00 AM on Friday 24 Oct 2014 (Local Time) from SBJU Reporting Station
Scattered Clouds Scattered Clouds  
Wind Chill: 79°   Ceiling: Unl
Heat Index: 81°   Visibility: 6mi
Dew Point: 70°   Wind: 5mph
Humidity: 74%   Direction: 170°S
Pressure: 30"   Gusts: NA
Location:  7.25°S, 39.14°W
Report Text: SBJU 240700Z 17004KT 9999 SCT020 26/21 Q1016
Loading
Personal Weather Stations






























Interactive Weather Map
Tropical Storm Tracking
New forecast layout! Learn more

10-Day Weather Forecast

Advertisements
Track Severe Weather on mobile